createdAt,value
2023-03-12T00:02:16.426Z,99998.44
2023-03-12T00:04:42.897Z,99998.38
2023-03-12T00:07:09.427Z,99985.38
2023-03-12T00:09:37.577Z,99991.59
2023-03-12T00:12:04.965Z,100002.97
2023-03-12T00:14:31.898Z,100003.69
2023-03-12T00:16:58.385Z,100010.56
2023-03-12T00:19:25.132Z,100005.41
2023-03-12T00:21:51.570Z,100008.94
2023-03-12T00:24:18.018Z,99997.59
2023-03-12T00:26:44.408Z,99989.75
2023-03-12T00:29:10.880Z,99996.72
2023-03-12T00:31:37.293Z,99992.34
2023-03-12T00:34:03.697Z,99991.41
2023-03-12T00:36:31.390Z,99986.25
2023-03-12T00:38:58.784Z,99988.97
2023-03-12T00:41:26.161Z,99986.44
2023-03-12T00:43:52.949Z,99994.19
2023-03-12T00:46:20.322Z,99987.09
2023-03-12T00:48:46.864Z,99995.09
2023-03-12T00:51:13.691Z,99999.53
2023-03-12T00:53:40.142Z,99989.13
2023-03-12T00:56:06.968Z,99995.88
2023-03-12T00:58:33.439Z,99998.47
2023-03-12T01:00:59.930Z,99996.88
2023-03-12T01:03:26.547Z,99995.97
2023-03-12T01:05:54.648Z,100004.53
2023-03-12T01:08:22.217Z,100008.91
2023-03-12T01:10:48.671Z,100002.81
2023-03-12T01:13:15.302Z,99989.13
2023-03-12T01:15:41.749Z,99987.41
2023-03-12T01:18:08.336Z,99997.94
2023-03-12T01:20:34.869Z,99996.16
2023-03-12T01:23:01.380Z,99983.94
2023-03-12T01:25:28.000Z,99993.59
2023-03-12T01:27:54.395Z,99987.44
2023-03-12T01:30:20.790Z,99992.72
2023-03-12T01:32:47.303Z,99983.94
2023-03-12T01:35:13.921Z,99978.81
2023-03-12T01:37:40.303Z,99977.13
2023-03-12T01:40:07.100Z,99991.16
2023-03-12T01:42:33.488Z,99986.72
2023-03-12T01:45:02.837Z,99991.25
2023-03-12T01:47:33.000Z,99985.13
2023-03-12T01:50:00.849Z,99987.72
2023-03-12T01:52:30.721Z,99985.94
2023-03-12T01:55:06.737Z,99981.47
2023-03-12T01:57:43.855Z,99970.16
2023-03-12T02:00:20.741Z,99962.44
2023-03-12T02:02:48.596Z,99957.28
2023-03-12T02:05:23.279Z,99960.81
2023-03-12T02:07:49.643Z,99960.78
2023-03-12T02:10:17.118Z,99947.81
2023-03-12T02:12:43.718Z,99952.22
2023-03-12T02:15:10.963Z,99953.84
2023-03-12T02:17:37.806Z,99947.84
2023-03-12T02:20:31.979Z,99946.97
2023-03-12T02:23:09.330Z,99943.50
2023-03-12T02:25:41.442Z,99942.63
2023-03-12T02:28:14.039Z,99942.72
2023-03-12T02:30:45.339Z,99946.22
2023-03-12T02:33:12.621Z,99938.44
2023-03-12T02:35:39.391Z,99930.53
2023-03-12T02:38:44.065Z,99929.75
2023-03-12T02:41:12.027Z,99934.97
2023-03-12T02:43:39.204Z,99926.25
2023-03-12T02:46:06.394Z,99924.53
2023-03-12T02:48:32.865Z,99934.97
2023-03-12T02:50:59.320Z,99934.16
2023-03-12T02:53:25.846Z,99932.38
2023-03-12T02:55:52.421Z,99919.34
2023-03-12T02:58:18.894Z,99925.47
2023-03-12T03:00:45.276Z,99934.25
2023-03-12T03:03:11.688Z,99937.66
2023-03-12T03:05:38.097Z,99937.66
2023-03-12T03:08:05.089Z,99939.38
2023-03-12T03:10:31.551Z,99940.28
2023-03-12T03:12:57.984Z,99934.25
2023-03-12T03:15:24.899Z,99931.63
2023-03-12T03:17:51.330Z,99934.19
2023-03-12T03:20:17.973Z,99935.97
2023-03-12T03:22:44.544Z,99942.09
2023-03-12T03:25:11.035Z,99943.88
2023-03-12T03:27:37.422Z,99935.06
2023-03-12T03:30:04.463Z,99921.09
2023-03-12T03:32:30.922Z,99925.31
2023-03-12T03:34:57.366Z,99924.34
2023-03-12T03:37:23.763Z,99917.38
2023-03-12T03:39:50.164Z,99910.31
2023-03-12T03:42:16.531Z,99909.50
2023-03-12T03:44:43.031Z,99913.03
2023-03-12T03:47:09.415Z,99925.31
2023-03-12T03:49:35.871Z,99916.50
2023-03-12T03:52:02.357Z,99897.34
2023-03-12T03:54:30.296Z,99890.53
2023-03-12T03:56:56.683Z,99919.34
2023-03-12T03:59:23.064Z,99913.25
2023-03-12T04:01:49.469Z,99913.31
2023-03-12T04:04:15.928Z,99914.19
2023-03-12T04:06:42.324Z,99910.72
2023-03-12T04:09:08.871Z,99912.53
2023-03-12T04:11:35.269Z,99905.53
2023-03-12T04:14:01.662Z,99908.16
2023-03-12T04:16:28.196Z,99900.34
2023-03-12T04:18:54.684Z,99897.69
2023-03-12T04:21:21.164Z,99894.97
2023-03-12T04:23:47.618Z,99889.72
2023-03-12T04:26:14.106Z,99896.75
2023-03-12T04:28:40.539Z,99888.97
2023-03-12T04:31:08.122Z,99895.97
2023-03-12T04:33:39.726Z,99893.34
2023-03-12T04:36:07.025Z,99888.06
2023-03-12T04:38:33.932Z,99875.91
2023-03-12T04:41:05.146Z,99878.41
2023-03-12T04:43:32.193Z,99869.78
2023-03-12T04:45:59.299Z,99876.81
2023-03-12T04:48:26.384Z,99872.47
2023-03-12T04:50:53.411Z,99869.91
2023-03-12T04:53:20.676Z,99871.63
2023-03-12T04:55:47.188Z,99875.09
2023-03-12T04:58:15.171Z,99869.88
2023-03-12T05:00:42.228Z,99864.63
2023-03-12T05:03:09.146Z,99869.03
2023-03-12T05:05:35.954Z,99874.25
2023-03-12T05:08:03.388Z,99877.75
2023-03-12T05:10:29.756Z,99867.25
2023-03-12T05:12:56.259Z,99870.78
2023-03-12T05:15:22.985Z,99881.25
2023-03-12T05:17:49.405Z,99881.25
2023-03-12T05:20:17.643Z,99885.63
2023-03-12T05:22:44.165Z,99885.63
2023-03-12T05:25:11.109Z,99880.41
2023-03-12T05:27:37.876Z,99876.84
2023-03-12T05:30:06.448Z,99875.06
2023-03-12T05:32:33.070Z,99867.22
2023-03-12T05:34:59.486Z,99872.50
2023-03-12T05:37:25.879Z,99874.25
2023-03-12T05:39:54.271Z,99872.53
2023-03-12T05:42:20.704Z,99870.78
2023-03-12T05:44:47.061Z,99869.91
2023-03-12T05:47:13.450Z,99858.56
2023-03-12T05:49:39.885Z,99858.56
2023-03-12T05:52:06.634Z,99855.06
2023-03-12T05:54:33.186Z,99850.72
2023-03-12T05:56:59.647Z,99855.97
2023-03-12T05:59:26.263Z,99852.47
2023-03-12T06:01:52.711Z,99850.69
2023-03-12T06:04:19.092Z,99849.84
2023-03-12T06:06:45.452Z,99852.44
2023-03-12T06:09:11.973Z,99848.97
2023-03-12T06:11:38.389Z,99848.97
2023-03-12T06:14:05.094Z,99847.25
2023-03-12T06:16:31.584Z,99847.25
2023-03-12T06:19:01.020Z,99843.75
2023-03-12T06:21:31.317Z,99842.88
2023-03-12T06:23:58.403Z,99842.00
2023-03-12T06:26:25.586Z,99855.03
2023-03-12T06:28:53.175Z,99859.44
2023-03-12T06:31:21.151Z,99861.16
2023-03-12T06:33:47.951Z,99854.16
2023-03-12T06:36:14.487Z,99852.38
2023-03-12T06:38:41.766Z,99857.63
2023-03-12T06:41:14.459Z,99862.88
2023-03-12T06:43:41.839Z,99860.22
2023-03-12T06:46:12.473Z,99862.91
2023-03-12T06:48:41.465Z,99868.09
2023-03-12T06:51:09.640Z,99858.53
2023-03-12T06:53:36.673Z,99855.03
2023-03-12T06:56:03.688Z,99845.47
2023-03-12T06:58:30.614Z,99842.78
2023-03-12T07:00:57.507Z,99848.06
2023-03-12T07:03:24.722Z,99846.34
2023-03-12T07:05:52.108Z,99842.81
2023-03-12T07:08:18.939Z,99853.34
2023-03-12T07:10:46.410Z,99873.41
2023-03-12T07:13:13.273Z,99872.53
2023-03-12T07:15:40.032Z,99876.00
2023-03-12T07:18:11.406Z,99880.38
2023-03-12T07:20:40.783Z,99878.63
2023-03-12T07:23:07.845Z,99875.13
2023-03-12T07:25:39.479Z,99865.56
2023-03-12T07:28:06.827Z,99858.56
2023-03-12T07:30:33.858Z,99862.94
2023-03-12T07:33:09.049Z,99853.31
2023-03-12T07:35:36.303Z,99853.34
2023-03-12T07:38:02.853Z,99851.63
2023-03-12T07:40:29.346Z,99857.69
2023-03-12T07:42:55.768Z,99853.34
2023-03-12T07:45:22.567Z,99855.97
2023-03-12T07:47:49.686Z,99868.16
2023-03-12T07:50:17.810Z,99883.88
2023-03-12T07:52:44.935Z,99882.13
2023-03-12T07:55:12.203Z,99871.69
2023-03-12T07:57:38.736Z,99872.56
2023-03-12T08:00:07.560Z,99875.16
2023-03-12T08:02:34.355Z,99868.19
2023-03-12T08:05:00.837Z,99865.56
2023-03-12T08:07:32.133Z,99868.19
2023-03-12T08:09:59.609Z,99869.94
2023-03-12T08:12:26.196Z,99879.53
2023-03-12T08:14:52.584Z,99876.06
2023-03-12T08:17:19.258Z,99877.81
2023-03-12T08:19:45.842Z,99878.66
2023-03-12T08:22:12.264Z,99876.06
2023-03-12T08:24:39.411Z,99884.81
2023-03-12T08:27:05.903Z,99876.94
2023-03-12T08:29:33.450Z,99873.41
2023-03-12T08:32:04.984Z,99875.16
2023-03-12T08:34:35.390Z,99876.06
2023-03-12T08:37:02.910Z,99869.94
2023-03-12T08:39:29.593Z,99867.31
2023-03-12T08:42:00.139Z,99869.06
2023-03-12T08:44:27.083Z,99881.28
2023-03-12T08:46:53.523Z,99883.03
2023-03-12T08:49:21.259Z,99883.91
2023-03-12T08:51:47.968Z,99876.03
2023-03-12T08:54:14.442Z,99884.75
2023-03-12T08:56:44.137Z,99888.25
2023-03-12T08:59:11.644Z,99872.50
2023-03-12T09:01:38.327Z,99876.84
2023-03-12T09:04:05.597Z,99859.41
2023-03-12T09:06:33.437Z,99859.34
2023-03-12T09:09:04.772Z,99855.91
2023-03-12T09:11:33.037Z,99864.59
2023-03-12T09:14:39.472Z,99862.81
2023-03-12T09:16:46.810Z,99851.25
2023-03-12T09:19:13.412Z,99853.06
2023-03-12T09:21:40.104Z,99857.38
2023-03-12T09:24:07.530Z,99865.28
2023-03-12T09:26:34.452Z,99869.69
2023-03-12T09:29:00.898Z,99876.69
2023-03-12T09:31:27.518Z,99873.94
2023-03-12T09:33:53.902Z,99873.13
2023-03-12T09:36:20.521Z,99864.31
2023-03-12T09:38:46.882Z,99870.44
2023-03-12T09:41:28.882Z,99875.63
2023-03-12T09:44:03.566Z,99874.72
2023-03-12T09:46:37.680Z,99881.78
2023-03-12T09:49:11.331Z,99877.44
2023-03-12T09:51:49.191Z,99888.78
2023-03-12T09:54:27.657Z,99870.34
2023-03-12T09:56:57.195Z,99882.63
2023-03-12T09:59:23.947Z,99878.19
2023-03-12T10:01:58.139Z,99875.47
2023-03-12T10:04:58.673Z,99885.00
2023-03-12T10:07:27.718Z,99886.69
2023-03-12T10:10:07.994Z,99885.09
2023-03-12T10:12:55.749Z,99882.31
2023-03-12T10:15:40.084Z,99884.88
2023-03-12T10:18:25.616Z,99879.63
2023-03-12T10:21:07.523Z,99875.09
2023-03-12T10:23:52.162Z,99876.72
2023-03-12T10:26:53.590Z,99871.50
2023-03-12T10:29:32.569Z,99859.97
2023-03-12T10:32:10.975Z,99854.53
2023-03-12T10:34:42.853Z,99842.16
2023-03-12T10:37:18.387Z,99835.28
2023-03-12T10:39:45.216Z,99842.03
2023-03-12T10:42:20.987Z,99845.28
2023-03-12T10:44:50.880Z,99841.88
2023-03-12T10:47:36.971Z,99845.41
2023-03-12T10:50:15.262Z,99848.59
2023-03-12T10:52:42.374Z,99835.13
2023-03-12T10:55:32.424Z,99833.69
2023-03-12T10:57:58.831Z,99839.94
2023-03-12T11:00:31.081Z,99844.84
2023-03-12T11:03:20.309Z,99842.31
2023-03-12T11:05:49.768Z,99840.75
2023-03-12T11:08:36.896Z,99841.34
2023-03-12T11:11:04.979Z,99839.84
2023-03-12T11:13:38.081Z,99834.09
2023-03-12T11:16:16.475Z,99827.88
2023-03-12T11:19:26.847Z,99834.41
2023-03-12T11:21:58.225Z,99820.94
2023-03-12T11:24:24.836Z,99819.38
2023-03-12T11:27:23.969Z,99811.75
2023-03-12T11:29:50.659Z,99808.78
2023-03-12T11:32:31.389Z,99806.84
2023-03-12T11:34:58.183Z,99799.44
2023-03-12T11:37:46.172Z,99807.97
2023-03-12T11:40:24.230Z,99804.00
2023-03-12T11:43:11.563Z,99809.47
2023-03-12T11:45:52.725Z,99799.31
2023-03-12T11:48:37.453Z,99794.28
2023-03-12T11:51:17.560Z,99799.34
2023-03-12T11:54:08.081Z,99791.22
2023-03-12T11:56:38.882Z,99779.13
2023-03-12T11:59:18.507Z,99777.75
2023-03-12T12:02:09.747Z,99766.13
2023-03-12T12:05:15.827Z,99755.91
2023-03-12T12:08:00.816Z,99746.59
2023-03-12T12:10:33.442Z,99749.31
2023-03-12T12:13:38.602Z,99752.63
2023-03-12T12:16:16.966Z,99759.44
2023-03-12T12:19:07.068Z,99763.06
2023-03-12T12:22:08.119Z,99761.44
2023-03-12T12:24:53.247Z,99764.50
2023-03-12T12:27:32.151Z,99746.38
2023-03-12T12:30:22.531Z,99748.69
2023-03-12T12:32:48.994Z,99747.94
2023-03-12T12:35:35.112Z,99751.56
2023-03-12T12:38:09.182Z,99747.56
2023-03-12T12:40:37.752Z,99750.16
2023-03-12T12:43:17.659Z,99749.06
2023-03-12T12:45:45.017Z,99752.56
2023-03-12T12:48:25.727Z,99757.63
2023-03-12T12:50:54.584Z,99763.72
2023-03-12T12:53:25.547Z,99758.75
2023-03-12T12:56:00.262Z,99750.13
2023-03-12T12:58:43.633Z,99738.66
2023-03-12T13:01:10.995Z,99731.22
2023-03-12T13:03:38.559Z,99728.97
2023-03-12T13:06:06.768Z,99719.38
2023-03-12T13:08:44.914Z,99726.31
2023-03-12T13:11:19.446Z,99731.66
2023-03-12T13:14:10.949Z,99721.50
2023-03-12T13:16:39.468Z,99715.59
2023-03-12T13:19:14.952Z,99706.88
2023-03-12T13:21:54.234Z,99705.16
2023-03-12T13:24:31.097Z,99693.41
2023-03-12T13:27:09.519Z,99691.53
2023-03-12T13:29:39.787Z,99687.94
2023-03-12T13:32:10.639Z,99686.47
2023-03-12T13:34:46.396Z,99686.22
2023-03-12T13:37:47.351Z,99698.06
2023-03-12T13:40:29.014Z,99688.78
2023-03-12T13:43:14.958Z,99693.59
2023-03-12T13:45:41.273Z,99701.28
2023-03-12T13:48:20.779Z,99707.38
2023-03-12T13:51:10.546Z,99703.34
2023-03-12T13:53:40.687Z,99698.13
2023-03-12T13:56:11.419Z,99697.81
2023-03-12T13:58:46.981Z,99694.88
2023-03-12T14:01:18.014Z,99686.91
2023-03-12T14:03:49.767Z,99691.28
2023-03-12T14:06:22.897Z,99702.44
2023-03-12T14:09:24.237Z,99699.69
2023-03-12T14:12:05.680Z,99691.00
2023-03-12T14:14:51.013Z,99698.81
2023-03-12T14:17:30.922Z,99699.63
2023-03-12T14:20:08.071Z,99679.41
2023-03-12T14:22:38.182Z,99676.81
2023-03-12T14:25:22.018Z,99673.50
2023-03-12T14:27:49.823Z,99677.44
2023-03-12T14:30:25.298Z,99669.38
2023-03-12T14:32:56.293Z,99677.59
2023-03-12T14:35:28.316Z,99682.69
2023-03-12T14:38:03.074Z,99687.13
2023-03-12T14:40:46.031Z,99684.97
2023-03-12T14:43:20.778Z,99679.66
2023-03-12T14:45:50.927Z,99683.13
2023-03-12T14:48:21.573Z,99680.16
2023-03-12T14:50:48.762Z,99669.16
2023-03-12T14:53:30.578Z,99660.34
2023-03-12T14:56:20.984Z,99658.66
2023-03-12T14:58:49.283Z,99655.81
2023-03-12T15:01:20.525Z,99653.78
2023-03-12T15:03:50.656Z,99653.72
2023-03-12T15:06:29.016Z,99648.19
2023-03-12T15:08:56.996Z,99650.56
2023-03-12T15:11:27.057Z,99648.84
2023-03-12T15:14:02.226Z,99650.06
2023-03-12T15:16:28.830Z,99646.75
2023-03-12T15:18:56.490Z,99657.41
2023-03-12T15:21:23.243Z,99660.53
2023-03-12T15:23:50.375Z,99662.69
2023-03-12T15:26:19.847Z,99666.50
2023-03-12T15:29:01.272Z,99660.53
2023-03-12T15:31:28.392Z,99665.00
2023-03-12T15:34:03.847Z,99657.84
2023-03-12T15:36:32.595Z,99660.78
2023-03-12T15:39:12.810Z,99665.13
2023-03-12T15:41:48.780Z,99659.94
2023-03-12T15:44:20.890Z,99658.50
2023-03-12T15:46:50.210Z,99649.50
2023-03-12T15:49:29.847Z,99654.97
2023-03-12T15:52:19.834Z,99649.56
2023-03-12T15:55:12.103Z,99654.03
2023-03-12T15:57:45.859Z,99664.69
2023-03-12T16:00:12.215Z,99669.09
2023-03-12T16:02:58.266Z,99666.69
2023-03-12T16:05:28.272Z,99666.63
2023-03-12T16:07:54.781Z,99667.13
2023-03-12T16:10:24.666Z,99661.50
2023-03-12T16:12:58.148Z,99656.19
2023-03-12T16:15:30.483Z,99659.38
2023-03-12T16:17:57.087Z,99647.47
2023-03-12T16:20:23.594Z,99644.94
2023-03-12T16:22:50.017Z,99635.06
2023-03-12T16:25:16.515Z,99647.91
2023-03-12T16:27:49.748Z,99650.00
2023-03-12T16:30:36.390Z,99663.53
2023-03-12T16:33:08.926Z,99665.19
2023-03-12T16:35:36.007Z,99675.56
2023-03-12T16:38:02.723Z,99668.41
2023-03-12T16:40:35.419Z,99681.25
2023-03-12T16:43:07.375Z,99678.44
2023-03-12T16:45:35.955Z,99684.09
2023-03-12T16:48:06.499Z,99687.00
2023-03-12T16:50:33.116Z,99691.34
2023-03-12T16:52:59.864Z,99695.69
2023-03-12T16:55:30.084Z,99700.72
2023-03-12T16:58:00.308Z,99703.38
2023-03-12T17:00:30.138Z,99704.69
2023-03-12T17:02:59.641Z,99710.66
2023-03-12T17:05:30.477Z,99710.81
2023-03-12T17:07:58.403Z,99714.59
2023-03-12T17:10:26.143Z,99715.28
2023-03-12T17:12:53.715Z,99727.88
2023-03-12T17:15:21.486Z,99735.34
2023-03-12T17:17:49.116Z,99737.16
2023-03-12T17:20:17.889Z,99730.41
2023-03-12T17:22:44.404Z,99732.00
2023-03-12T17:25:23.224Z,99728.75
2023-03-12T17:27:50.141Z,99733.09
2023-03-12T17:30:16.843Z,99731.19
2023-03-12T17:32:43.405Z,99740.75
2023-03-12T17:35:09.958Z,99743.13
2023-03-12T17:37:36.398Z,99741.63
2023-03-12T17:40:09.324Z,99748.94
2023-03-12T17:42:37.231Z,99755.97
2023-03-12T17:45:08.254Z,99746.88
2023-03-12T17:47:35.622Z,99760.03
2023-03-12T17:50:02.981Z,99754.56
2023-03-12T17:52:29.387Z,99760.75
2023-03-12T17:54:55.779Z,99772.88
2023-03-12T17:57:22.703Z,99770.41
2023-03-12T17:59:49.137Z,99757.81
2023-03-12T18:02:15.572Z,99767.13
2023-03-12T18:04:42.031Z,99765.59
2023-03-12T18:07:08.955Z,99770.34
2023-03-12T18:09:35.483Z,99758.94
2023-03-12T18:12:02.246Z,99762.28
2023-03-12T18:14:28.599Z,99753.63
2023-03-12T18:16:54.992Z,99753.22
2023-03-12T18:19:21.461Z,99754.59
2023-03-12T18:21:47.861Z,99755.94
2023-03-12T18:24:14.900Z,99753.22
2023-03-12T18:26:41.640Z,99751.28
2023-03-12T18:29:08.025Z,99762.22
2023-03-12T18:31:34.676Z,99757.16
2023-03-12T18:34:01.190Z,99762.94
2023-03-12T18:36:27.669Z,99768.94
2023-03-12T18:38:54.048Z,99761.16
2023-03-12T18:41:20.628Z,99768.66
2023-03-12T18:43:47.060Z,99759.63
2023-03-12T18:46:13.619Z,99767.63
2023-03-12T18:48:41.792Z,99773.91
2023-03-12T18:51:10.087Z,99766.34
2023-03-12T18:53:36.649Z,99769.19
2023-03-12T18:56:03.101Z,99770.72
2023-03-12T18:58:29.615Z,99770.28
2023-03-12T19:00:57.835Z,99773.72
2023-03-12T19:03:25.578Z,99772.13
2023-03-12T19:06:07.124Z,99772.94
2023-03-12T19:08:34.062Z,99769.59
2023-03-12T19:11:00.467Z,99758.31
2023-03-12T19:13:26.878Z,99767.13
2023-03-12T19:16:04.715Z,99761.91
2023-03-12T19:18:31.194Z,99768.31
2023-03-12T19:20:57.638Z,99770.72
2023-03-12T19:23:24.094Z,99771.41
2023-03-12T19:25:50.448Z,99769.91
2023-03-12T19:28:17.120Z,99763.09
2023-03-12T19:30:43.491Z,99775.91
2023-03-12T19:33:10.227Z,99770.47
2023-03-12T19:35:41.463Z,99772.00
2023-03-12T19:38:09.002Z,99768.75
2023-03-12T19:40:35.753Z,99763.16
2023-03-12T19:43:02.548Z,99763.50
2023-03-12T19:45:29.200Z,99769.25
2023-03-12T19:47:55.639Z,99765.44
2023-03-12T19:50:22.976Z,99767.59
2023-03-12T19:52:49.642Z,99768.75
2023-03-12T19:55:16.712Z,99764.34
2023-03-12T19:57:43.107Z,99773.31
2023-03-12T20:00:12.009Z,99778.31
2023-03-12T20:02:39.459Z,99758.59
2023-03-12T20:05:07.480Z,99758.41
2023-03-12T20:07:34.066Z,99761.34
2023-03-12T20:10:00.650Z,99761.19
2023-03-12T20:12:27.040Z,99770.03
2023-03-12T20:14:53.560Z,99768.53
2023-03-12T20:17:19.926Z,99768.53
2023-03-12T20:19:46.328Z,99762.69
2023-03-12T20:22:12.951Z,99758.31
2023-03-12T20:24:39.368Z,99752.69
2023-03-12T20:27:05.831Z,99752.91
2023-03-12T20:29:32.266Z,99752.19
2023-03-12T20:31:58.692Z,99759.78
2023-03-12T20:34:28.943Z,99749.34
2023-03-12T20:36:55.292Z,99753.22
2023-03-12T20:39:21.644Z,99747.03
2023-03-12T20:41:49.402Z,99754.94
2023-03-12T20:44:16.599Z,99750.22
2023-03-12T20:46:43.044Z,99749.63
2023-03-12T20:49:09.411Z,99755.16
2023-03-12T20:51:35.989Z,99745.97
2023-03-12T20:54:02.397Z,99732.19
2023-03-12T20:56:28.791Z,99738.25
2023-03-12T20:58:55.343Z,99736.81
2023-03-12T21:01:21.839Z,99735.38
2023-03-12T21:03:48.256Z,99735.63
2023-03-12T21:06:14.674Z,99743.19
2023-03-12T21:08:41.088Z,99733.03
2023-03-12T21:11:07.909Z,99732.34
2023-03-12T21:13:34.521Z,99725.84
2023-03-12T21:16:00.890Z,99721.91
2023-03-12T21:18:28.971Z,99728.44
2023-03-12T21:21:01.301Z,99716.00
2023-03-12T21:23:27.820Z,99716.16
2023-03-12T21:25:59.709Z,99718.94
2023-03-12T21:28:27.223Z,99719.09
2023-03-12T21:30:53.761Z,99720.25
2023-03-12T21:33:20.125Z,99713.31
2023-03-12T21:35:47.253Z,99718.16
2023-03-12T21:38:13.813Z,99712.41
2023-03-12T21:40:40.215Z,99704.47
2023-03-12T21:43:06.620Z,99699.44
2023-03-12T21:45:34.102Z,99689.94
2023-03-12T21:48:00.464Z,99697.13
2023-03-12T21:50:26.797Z,99697.09
2023-03-12T21:52:53.347Z,99697.03
2023-03-12T21:55:19.731Z,99688.63
2023-03-12T21:57:46.270Z,99679.06
2023-03-12T22:00:14.069Z,99670.84
2023-03-12T22:02:41.758Z,99674.41
2023-03-12T22:05:08.952Z,99665.72
2023-03-12T22:07:35.852Z,99675.16
2023-03-12T22:10:03.520Z,99681.06
2023-03-12T22:12:29.981Z,99672.75
2023-03-12T22:14:56.415Z,99679.59
2023-03-12T22:17:22.847Z,99676.31
2023-03-12T22:19:49.219Z,99670.06
2023-03-12T22:22:15.682Z,99669.06
2023-03-12T22:24:42.298Z,99661.97
2023-03-12T22:27:08.873Z,99656.34
2023-03-12T22:29:35.332Z,99655.72
2023-03-12T22:32:01.962Z,99648.09
2023-03-12T22:34:29.599Z,99639.16
2023-03-12T22:36:56.004Z,99645.06
2023-03-12T22:39:22.432Z,99630.75
2023-03-12T22:41:52.986Z,99636.50
2023-03-12T22:44:19.579Z,99635.41
2023-03-12T22:46:46.109Z,99641.38
2023-03-12T22:49:12.633Z,99636.50
2023-03-12T22:51:39.018Z,99643.34
2023-03-12T22:54:05.504Z,99638.97
2023-03-12T22:56:32.058Z,99642.41
2023-03-12T22:58:58.605Z,99633.16
2023-03-12T23:01:25.221Z,99628.03
2023-03-12T23:03:51.812Z,99633.97
2023-03-12T23:06:20.958Z,99629.78
2023-03-12T23:08:48.336Z,99622.56
2023-03-12T23:11:15.793Z,99623.94
2023-03-12T23:13:44.469Z,99613.50
2023-03-12T23:16:14.171Z,99611.88
2023-03-12T23:18:41.579Z,99599.34
2023-03-12T23:21:10.066Z,99605.88
2023-03-12T23:23:39.346Z,99595.03
2023-03-12T23:26:06.578Z,99596.06
2023-03-12T23:28:32.970Z,99601.31
2023-03-12T23:31:07.448Z,99597.94
2023-03-12T23:33:34.839Z,99588.38
2023-03-12T23:36:13.279Z,99590.03
2023-03-12T23:38:40.220Z,99583.72
2023-03-12T23:41:18.525Z,99580.09
2023-03-12T23:43:45.296Z,99578.44
2023-03-12T23:46:13.067Z,99568.75
2023-03-12T23:48:40.346Z,99563.94
2023-03-12T23:51:12.966Z,99565.06
2023-03-12T23:53:43.517Z,99563.34
2023-03-12T23:56:14.677Z,99556.59
2023-03-12T23:58:41.678Z,99557.31
